sensor_id;sensor_type;location;lat;lon;timestamp;P1;durP1;ratioP1;P2;durP2;ratioP2
35576;SDS011;21680;52.400;16.920;2023-01-06T00:00:18;14.10;;;4.60;;
35576;SDS011;21680;52.400;16.920;2023-01-06T00:02:44;11.70;;;4.30;;
35576;SDS011;21680;52.400;16.920;2023-01-06T00:05:11;15.00;;;4.70;;
35576;SDS011;21680;52.400;16.920;2023-01-06T00:07:36;12.60;;;4.80;;
35576;SDS011;21680;52.400;16.920;2023-01-06T00:10:02;13.00;;;5.20;;
35576;SDS011;21680;52.400;16.920;2023-01-06T00:12:27;17.50;;;4.20;;
35576;SDS011;21680;52.400;16.920;2023-01-06T00:14:52;18.70;;;5.20;;
35576;SDS011;21680;52.400;16.920;2023-01-06T00:17:19;13.50;;;4.40;;
35576;SDS011;21680;52.400;16.920;2023-01-06T00:19:45;16.10;;;4.50;;
35576;SDS011;21680;52.400;16.920;2023-01-06T00:22:10;17.00;;;5.00;;
35576;SDS011;21680;52.400;16.920;2023-01-06T00:24:35;22.60;;;6.40;;
35576;SDS011;21680;52.400;16.920;2023-01-06T00:27:01;11.60;;;4.50;;
35576;SDS011;21680;52.400;16.920;2023-01-06T00:29:26;17.60;;;4.40;;
35576;SDS011;21680;52.400;16.920;2023-01-06T00:31:51;15.30;;;4.80;;
35576;SDS011;21680;52.400;16.920;2023-01-06T00:34:17;19.50;;;4.30;;
35576;SDS011;21680;52.400;16.920;2023-01-06T00:36:42;23.60;;;5.30;;
35576;SDS011;21680;52.400;16.920;2023-01-06T00:39:09;16.20;;;5.10;;
35576;SDS011;21680;52.400;16.920;2023-01-06T00:41:36;13.60;;;4.10;;
35576;SDS011;21680;52.400;16.920;2023-01-06T00:44:20;18.70;;;4.70;;
35576;SDS011;21680;52.400;16.920;2023-01-06T00:46:45;12.40;;;4.40;;
35576;SDS011;21680;52.400;16.920;2023-01-06T00:49:10;16.90;;;4.40;;
35576;SDS011;21680;52.400;16.920;2023-01-06T00:51:37;11.80;;;4.40;;
35576;SDS011;21680;52.400;16.920;2023-01-06T00:54:04;9.40;;;3.10;;
35576;SDS011;21680;52.400;16.920;2023-01-06T00:56:30;10.40;;;3.20;;
35576;SDS011;21680;52.400;16.920;2023-01-06T00:58:56;11.20;;;4.30;;
35576;SDS011;21680;52.400;16.920;2023-01-06T01:01:21;10.10;;;3.80;;
35576;SDS011;21680;52.400;16.920;2023-01-06T01:03:46;8.80;;;3.50;;
35576;SDS011;21680;52.400;16.920;2023-01-06T01:06:12;10.70;;;3.20;;
35576;SDS011;21680;52.400;16.920;2023-01-06T01:08:37;19.90;;;4.40;;
35576;SDS011;21680;52.400;16.920;2023-01-06T01:11:07;8.40;;;3.60;;
35576;SDS011;21680;52.400;16.920;2023-01-06T01:13:35;12.50;;;3.60;;
35576;SDS011;21680;52.400;16.920;2023-01-06T01:16:06;13.50;;;3.80;;
35576;SDS011;21680;52.400;16.920;2023-01-06T01:18:33;10.80;;;3.90;;
35576;SDS011;21680;52.400;16.920;2023-01-06T01:20:59;12.10;;;4.00;;
35576;SDS011;21680;52.400;16.920;2023-01-06T01:23:24;9.40;;;3.70;;
35576;SDS011;21680;52.400;16.920;2023-01-06T01:25:53;13.30;;;4.00;;
35576;SDS011;21680;52.400;16.920;2023-01-06T01:28:22;10.20;;;4.00;;
35576;SDS011;21680;52.400;16.920;2023-01-06T01:30:47;13.90;;;3.90;;
35576;SDS011;21680;52.400;16.920;2023-01-06T01:33:13;12.80;;;4.00;;
35576;SDS011;21680;52.400;16.920;2023-01-06T01:35:38;12.60;;;5.10;;
35576;SDS011;21680;52.400;16.920;2023-01-06T01:38:03;13.70;;;4.10;;
35576;SDS011;21680;52.400;16.920;2023-01-06T01:40:28;11.70;;;4.10;;
35576;SDS011;21680;52.400;16.920;2023-01-06T01:42:54;17.70;;;4.20;;
35576;SDS011;21680;52.400;16.920;2023-01-06T01:45:23;8.30;;;3.30;;
35576;SDS011;21680;52.400;16.920;2023-01-06T01:52:52;11.20;;;3.50;;
35576;SDS011;21680;52.400;16.920;2023-01-06T01:55:22;13.60;;;4.10;;
35576;SDS011;21680;52.400;16.920;2023-01-06T01:58:00;16.90;;;5.30;;
35576;SDS011;21680;52.400;16.920;2023-01-06T02:00:32;15.70;;;4.30;;
35576;SDS011;21680;52.400;16.920;2023-01-06T02:02:59;14.90;;;4.20;;
35576;SDS011;21680;52.400;16.920;2023-01-06T02:05:25;9.40;;;4.10;;
35576;SDS011;21680;52.400;16.920;2023-01-06T02:07:52;12.30;;;4.00;;
35576;SDS011;21680;52.400;16.920;2023-01-06T02:10:21;9.40;;;3.90;;
35576;SDS011;21680;52.400;16.920;2023-01-06T02:12:48;15.70;;;5.30;;
35576;SDS011;21680;52.400;16.920;2023-01-06T02:15:18;10.60;;;4.60;;
35576;SDS011;21680;52.400;16.920;2023-01-06T02:34:46;10.70;;;3.60;;
35576;SDS011;21680;52.400;16.920;2023-01-06T02:48:31;10.10;;;3.90;;
35576;SDS011;21680;52.400;16.920;2023-01-06T02:51:12;17.30;;;3.80;;
35576;SDS011;21680;52.400;16.920;2023-01-06T02:56:36;12.10;;;4.20;;
35576;SDS011;21680;52.400;16.920;2023-01-06T02:59:09;11.70;;;3.90;;
35576;SDS011;21680;52.400;16.920;2023-01-06T03:01:44;9.90;;;4.40;;
35576;SDS011;21680;52.400;16.920;2023-01-06T03:04:17;11.20;;;3.30;;
35576;SDS011;21680;52.400;16.920;2023-01-06T03:06:48;14.50;;;4.50;;
35576;SDS011;21680;52.400;16.920;2023-01-06T03:09:17;9.20;;;4.10;;
35576;SDS011;21680;52.400;16.920;2023-01-06T03:11:47;9.10;;;4.40;;
35576;SDS011;21680;52.400;16.920;2023-01-06T03:16:54;14.80;;;4.90;;
35576;SDS011;21680;52.400;16.920;2023-01-06T03:19:20;19.30;;;4.60;;
35576;SDS011;21680;52.400;16.920;2023-01-06T03:21:46;16.80;;;4.50;;
35576;SDS011;21680;52.400;16.920;2023-01-06T03:24:13;11.60;;;4.60;;
35576;SDS011;21680;52.400;16.920;2023-01-06T03:26:39;19.10;;;5.30;;
35576;SDS011;21680;52.400;16.920;2023-01-06T03:29:08;11.70;;;5.10;;
35576;SDS011;21680;52.400;16.920;2023-01-06T03:31:39;16.80;;;4.70;;
35576;SDS011;21680;52.400;16.920;2023-01-06T03:50:39;15.20;;;4.40;;
35576;SDS011;21680;52.400;16.920;2023-01-06T03:53:15;11.00;;;4.40;;
35576;SDS011;21680;52.400;16.920;2023-01-06T03:55:46;14.50;;;4.70;;
35576;SDS011;21680;52.400;16.920;2023-01-06T03:58:22;16.40;;;4.50;;
35576;SDS011;21680;52.400;16.920;2023-01-06T04:00:48;11.30;;;4.20;;
35576;SDS011;21680;52.400;16.920;2023-01-06T04:03:14;18.00;;;5.10;;
35576;SDS011;21680;52.400;16.920;2023-01-06T04:05:40;16.90;;;4.90;;
35576;SDS011;21680;52.400;16.920;2023-01-06T04:08:06;16.30;;;5.40;;
35576;SDS011;21680;52.400;16.920;2023-01-06T04:10:31;17.10;;;5.60;;
35576;SDS011;21680;52.400;16.920;2023-01-06T04:12:56;16.80;;;4.90;;
35576;SDS011;21680;52.400;16.920;2023-01-06T04:15:22;18.40;;;6.60;;
35576;SDS011;21680;52.400;16.920;2023-01-06T04:20:19;15.80;;;5.50;;
35576;SDS011;21680;52.400;16.920;2023-01-06T04:22:49;10.60;;;4.50;;
35576;SDS011;21680;52.400;16.920;2023-01-06T04:25:14;12.80;;;4.00;;
35576;SDS011;21680;52.400;16.920;2023-01-06T04:27:39;11.80;;;4.40;;
35576;SDS011;21680;52.400;16.920;2023-01-06T04:30:05;11.90;;;4.10;;
35576;SDS011;21680;52.400;16.920;2023-01-06T04:32:31;14.00;;;4.80;;
35576;SDS011;21680;52.400;16.920;2023-01-06T04:34:56;21.00;;;5.10;;
35576;SDS011;21680;52.400;16.920;2023-01-06T04:37:22;13.60;;;4.10;;
35576;SDS011;21680;52.400;16.920;2023-01-06T04:39:47;14.80;;;4.80;;
35576;SDS011;21680;52.400;16.920;2023-01-06T04:42:13;15.30;;;6.00;;
35576;SDS011;21680;52.400;16.920;2023-01-06T04:44:38;11.00;;;5.20;;
35576;SDS011;21680;52.400;16.920;2023-01-06T04:47:03;14.30;;;5.30;;
35576;SDS011;21680;52.400;16.920;2023-01-06T04:49:29;18.30;;;5.90;;
35576;SDS011;21680;52.400;16.920;2023-01-06T04:51:54;12.80;;;5.60;;
35576;SDS011;21680;52.400;16.920;2023-01-06T04:54:19;12.90;;;5.70;;
35576;SDS011;21680;52.400;16.920;2023-01-06T04:56:45;14.70;;;6.10;;
35576;SDS011;21680;52.400;16.920;2023-01-06T04:59:10;17.00;;;5.70;;
35576;SDS011;21680;52.400;16.920;2023-01-06T05:01:37;13.80;;;5.60;;
35576;SDS011;21680;52.400;16.920;2023-01-06T05:04:02;10.60;;;4.90;;
35576;SDS011;21680;52.400;16.920;2023-01-06T05:06:30;15.30;;;5.70;;
35576;SDS011;21680;52.400;16.920;2023-01-06T05:08:55;11.20;;;5.00;;
35576;SDS011;21680;52.400;16.920;2023-01-06T05:11:21;14.70;;;5.00;;
35576;SDS011;21680;52.400;16.920;2023-01-06T05:13:48;18.90;;;5.40;;
35576;SDS011;21680;52.400;16.920;2023-01-06T05:18:44;12.80;;;4.90;;
35576;SDS011;21680;52.400;16.920;2023-01-06T05:21:10;17.90;;;5.70;;
35576;SDS011;21680;52.400;16.920;2023-01-06T05:23:36;15.10;;;5.40;;
35576;SDS011;21680;52.400;16.920;2023-01-06T05:26:02;10.70;;;4.60;;
35576;SDS011;21680;52.400;16.920;2023-01-06T05:28:29;11.10;;;4.70;;
35576;SDS011;21680;52.400;16.920;2023-01-06T05:30:58;20.40;;;5.30;;
35576;SDS011;21680;52.400;16.920;2023-01-06T05:33:28;10.30;;;4.20;;
35576;SDS011;21680;52.400;16.920;2023-01-06T05:35:58;16.40;;;5.50;;
35576;SDS011;21680;52.400;16.920;2023-01-06T05:38:25;16.20;;;5.50;;
35576;SDS011;21680;52.400;16.920;2023-01-06T05:40:50;15.30;;;5.40;;
35576;SDS011;21680;52.400;16.920;2023-01-06T05:43:17;12.10;;;5.40;;
35576;SDS011;21680;52.400;16.920;2023-01-06T05:45:42;15.40;;;5.40;;
35576;SDS011;21680;52.400;16.920;2023-01-06T05:48:08;14.40;;;6.40;;
35576;SDS011;21680;52.400;16.920;2023-01-06T05:50:33;17.80;;;6.70;;
35576;SDS011;21680;52.400;16.920;2023-01-06T05:52:58;18.00;;;6.20;;
35576;SDS011;21680;52.400;16.920;2023-01-06T05:55:24;17.50;;;7.30;;
35576;SDS011;21680;52.400;16.920;2023-01-06T05:57:49;23.10;;;7.50;;
35576;SDS011;21680;52.400;16.920;2023-01-06T06:00:14;19.40;;;7.50;;
35576;SDS011;21680;52.400;16.920;2023-01-06T06:02:40;22.30;;;7.40;;
35576;SDS011;21680;52.400;16.920;2023-01-06T06:05:05;19.10;;;7.50;;
35576;SDS011;21680;52.400;16.920;2023-01-06T06:07:30;16.00;;;7.20;;
35576;SDS011;21680;52.400;16.920;2023-01-06T06:09:56;15.60;;;6.50;;
35576;SDS011;21680;52.400;16.920;2023-01-06T06:12:21;15.70;;;6.50;;
35576;SDS011;21680;52.400;16.920;2023-01-06T06:14:46;16.70;;;6.90;;
35576;SDS011;21680;52.400;16.920;2023-01-06T06:17:12;13.60;;;6.40;;
35576;SDS011;21680;52.400;16.920;2023-01-06T06:19:37;23.40;;;8.70;;
35576;SDS011;21680;52.400;16.920;2023-01-06T06:22:02;25.30;;;9.40;;
35576;SDS011;21680;52.400;16.920;2023-01-06T06:24:27;20.00;;;8.50;;
35576;SDS011;21680;52.400;16.920;2023-01-06T06:26:53;26.00;;;9.30;;
35576;SDS011;21680;52.400;16.920;2023-01-06T06:29:18;23.00;;;8.90;;
35576;SDS011;21680;52.400;16.920;2023-01-06T06:31:43;22.90;;;7.90;;
35576;SDS011;21680;52.400;16.920;2023-01-06T06:34:09;21.90;;;7.30;;
35576;SDS011;21680;52.400;16.920;2023-01-06T06:36:36;14.60;;;6.80;;
35576;SDS011;21680;52.400;16.920;2023-01-06T06:39:02;19.40;;;7.00;;
35576;SDS011;21680;52.400;16.920;2023-01-06T06:41:27;15.30;;;7.00;;
35576;SDS011;21680;52.400;16.920;2023-01-06T06:43:52;16.00;;;6.10;;
35576;SDS011;21680;52.400;16.920;2023-01-06T06:46:18;20.20;;;7.20;;
35576;SDS011;21680;52.400;16.920;2023-01-06T06:48:44;14.90;;;5.90;;
35576;SDS011;21680;52.400;16.920;2023-01-06T06:51:11;11.90;;;5.60;;
35576;SDS011;21680;52.400;16.920;2023-01-06T06:53:38;12.60;;;6.10;;
35576;SDS011;21680;52.400;16.920;2023-01-06T06:56:05;15.30;;;6.10;;
35576;SDS011;21680;52.400;16.920;2023-01-06T06:58:31;17.20;;;6.70;;
35576;SDS011;21680;52.400;16.920;2023-01-06T07:00:57;17.00;;;6.40;;
35576;SDS011;21680;52.400;16.920;2023-01-06T07:03:23;19.10;;;6.50;;
35576;SDS011;21680;52.400;16.920;2023-01-06T07:05:49;15.00;;;6.10;;
35576;SDS011;21680;52.400;16.920;2023-01-06T07:08:16;16.20;;;5.60;;
35576;SDS011;21680;52.400;16.920;2023-01-06T07:10:42;21.40;;;6.20;;
35576;SDS011;21680;52.400;16.920;2023-01-06T07:13:07;15.00;;;4.90;;
35576;SDS011;21680;52.400;16.920;2023-01-06T07:15:33;11.60;;;5.40;;
35576;SDS011;21680;52.400;16.920;2023-01-06T07:17:59;12.20;;;5.00;;
35576;SDS011;21680;52.400;16.920;2023-01-06T07:20:26;15.20;;;5.60;;
35576;SDS011;21680;52.400;16.920;2023-01-06T07:22:53;13.50;;;5.90;;
35576;SDS011;21680;52.400;16.920;2023-01-06T07:25:18;12.00;;;6.10;;
35576;SDS011;21680;52.400;16.920;2023-01-06T07:27:43;12.00;;;5.40;;
35576;SDS011;21680;52.400;16.920;2023-01-06T07:30:09;13.70;;;5.20;;
35576;SDS011;21680;52.400;16.920;2023-01-06T07:32:34;14.70;;;5.70;;
35576;SDS011;21680;52.400;16.920;2023-01-06T07:35:00;12.70;;;5.20;;
35576;SDS011;21680;52.400;16.920;2023-01-06T07:37:25;19.00;;;7.00;;
35576;SDS011;21680;52.400;16.920;2023-01-06T07:39:50;11.40;;;6.10;;
35576;SDS011;21680;52.400;16.920;2023-01-06T07:42:16;18.40;;;6.30;;
35576;SDS011;21680;52.400;16.920;2023-01-06T07:44:41;12.20;;;5.40;;
35576;SDS011;21680;52.400;16.920;2023-01-06T07:47:06;13.30;;;5.60;;
35576;SDS011;21680;52.400;16.920;2023-01-06T07:49:32;12.70;;;5.60;;
35576;SDS011;21680;52.400;16.920;2023-01-06T07:51:57;19.00;;;7.00;;
35576;SDS011;21680;52.400;16.920;2023-01-06T07:54:22;15.70;;;6.50;;
35576;SDS011;21680;52.400;16.920;2023-01-06T07:56:47;14.00;;;6.10;;
35576;SDS011;21680;52.400;16.920;2023-01-06T07:59:13;17.10;;;7.70;;
35576;SDS011;21680;52.400;16.920;2023-01-06T08:01:38;33.00;;;9.60;;
35576;SDS011;21680;52.400;16.920;2023-01-06T08:04:03;17.10;;;7.10;;
35576;SDS011;21680;52.400;16.920;2023-01-06T08:06:29;17.80;;;6.30;;
35576;SDS011;21680;52.400;16.920;2023-01-06T08:08:54;21.00;;;6.60;;
35576;SDS011;21680;52.400;16.920;2023-01-06T08:11:19;16.20;;;7.00;;
35576;SDS011;21680;52.400;16.920;2023-01-06T08:13:45;13.40;;;5.90;;
35576;SDS011;21680;52.400;16.920;2023-01-06T08:16:10;15.10;;;6.00;;
35576;SDS011;21680;52.400;16.920;2023-01-06T08:18:36;18.50;;;6.10;;
35576;SDS011;21680;52.400;16.920;2023-01-06T08:21:09;14.60;;;5.60;;
35576;SDS011;21680;52.400;16.920;2023-01-06T08:23:35;12.70;;;5.60;;
35576;SDS011;21680;52.400;16.920;2023-01-06T08:26:04;15.10;;;5.40;;
35576;SDS011;21680;52.400;16.920;2023-01-06T08:28:31;13.30;;;6.30;;
35576;SDS011;21680;52.400;16.920;2023-01-06T08:30:57;20.40;;;6.60;;
35576;SDS011;21680;52.400;16.920;2023-01-06T08:33:23;22.90;;;8.90;;
35576;SDS011;21680;52.400;16.920;2023-01-06T08:35:50;30.20;;;11.90;;
35576;SDS011;21680;52.400;16.920;2023-01-06T08:38:16;25.60;;;10.50;;
35576;SDS011;21680;52.400;16.920;2023-01-06T08:40:41;23.70;;;9.30;;
35576;SDS011;21680;52.400;16.920;2023-01-06T08:43:07;9.80;;;6.60;;
35576;SDS011;21680;52.400;16.920;2023-01-06T08:45:32;17.20;;;8.10;;
35576;SDS011;21680;52.400;16.920;2023-01-06T08:48:03;13.60;;;6.20;;
35576;SDS011;21680;52.400;16.920;2023-01-06T08:50:28;16.80;;;7.20;;
35576;SDS011;21680;52.400;16.920;2023-01-06T08:52:54;10.50;;;6.00;;
35576;SDS011;21680;52.400;16.920;2023-01-06T08:55:19;12.60;;;5.30;;
35576;SDS011;21680;52.400;16.920;2023-01-06T08:57:44;10.20;;;5.00;;
35576;SDS011;21680;52.400;16.920;2023-01-06T09:00:10;8.90;;;5.10;;
35576;SDS011;21680;52.400;16.920;2023-01-06T09:02:35;12.20;;;6.10;;
35576;SDS011;21680;52.400;16.920;2023-01-06T09:05:01;8.50;;;4.70;;
35576;SDS011;21680;52.400;16.920;2023-01-06T09:07:26;16.80;;;6.30;;
35576;SDS011;21680;52.400;16.920;2023-01-06T09:09:51;13.70;;;6.50;;
35576;SDS011;21680;52.400;16.920;2023-01-06T09:12:17;16.70;;;6.80;;
35576;SDS011;21680;52.400;16.920;2023-01-06T09:14:42;20.80;;;7.20;;
35576;SDS011;21680;52.400;16.920;2023-01-06T09:17:07;20.40;;;7.20;;
35576;SDS011;21680;52.400;16.920;2023-01-06T09:19:32;14.20;;;5.60;;
35576;SDS011;21680;52.400;16.920;2023-01-06T09:21:58;11.80;;;4.90;;
35576;SDS011;21680;52.400;16.920;2023-01-06T09:24:23;25.70;;;10.10;;
35576;SDS011;21680;52.400;16.920;2023-01-06T09:26:48;32.80;;;11.60;;
35576;SDS011;21680;52.400;16.920;2023-01-06T09:29:14;22.60;;;9.40;;
35576;SDS011;21680;52.400;16.920;2023-01-06T09:31:39;20.70;;;7.20;;
35576;SDS011;21680;52.400;16.920;2023-01-06T09:34:04;14.80;;;6.70;;
35576;SDS011;21680;52.400;16.920;2023-01-06T09:36:29;17.90;;;7.70;;
35576;SDS011;21680;52.400;16.920;2023-01-06T09:38:56;16.70;;;7.70;;
35576;SDS011;21680;52.400;16.920;2023-01-06T09:47:26;14.50;;;6.60;;
35576;SDS011;21680;52.400;16.920;2023-01-06T09:50:04;13.70;;;7.00;;
35576;SDS011;21680;52.400;16.920;2023-01-06T09:52:40;16.70;;;9.00;;
35576;SDS011;21680;52.400;16.920;2023-01-06T09:58:12;16.30;;;8.60;;
35576;SDS011;21680;52.400;16.920;2023-01-06T10:00:43;14.00;;;6.80;;
35576;SDS011;21680;52.400;16.920;2023-01-06T10:03:14;18.50;;;6.70;;
35576;SDS011;21680;52.400;16.920;2023-01-06T10:08:33;14.00;;;7.10;;
35576;SDS011;21680;52.400;16.920;2023-01-06T10:20:07;13.80;;;8.50;;
35576;SDS011;21680;52.400;16.920;2023-01-06T10:25:34;15.90;;;8.40;;
35576;SDS011;21680;52.400;16.920;2023-01-06T10:28:08;18.70;;;9.00;;
35576;SDS011;21680;52.400;16.920;2023-01-06T10:30:55;15.60;;;8.60;;
35576;SDS011;21680;52.400;16.920;2023-01-06T10:33:28;15.10;;;8.70;;
35576;SDS011;21680;52.400;16.920;2023-01-06T10:35:57;20.40;;;9.10;;
35576;SDS011;21680;52.400;16.920;2023-01-06T10:38:38;21.30;;;9.60;;
35576;SDS011;21680;52.400;16.920;2023-01-06T10:41:12;23.40;;;9.80;;
35576;SDS011;21680;52.400;16.920;2023-01-06T10:43:45;22.50;;;10.30;;
35576;SDS011;21680;52.400;16.920;2023-01-06T10:46:11;18.80;;;11.10;;
35576;SDS011;21680;52.400;16.920;2023-01-06T10:48:36;18.60;;;10.90;;
35576;SDS011;21680;52.400;16.920;2023-01-06T10:54:00;37.40;;;13.10;;
35576;SDS011;21680;52.400;16.920;2023-01-06T10:56:31;25.40;;;11.20;;
35576;SDS011;21680;52.400;16.920;2023-01-06T10:59:07;28.50;;;12.30;;
35576;SDS011;21680;52.400;16.920;2023-01-06T11:01:33;17.70;;;8.90;;
35576;SDS011;21680;52.400;16.920;2023-01-06T11:04:05;22.60;;;10.30;;
35576;SDS011;21680;52.400;16.920;2023-01-06T11:06:40;18.80;;;10.30;;
35576;SDS011;21680;52.400;16.920;2023-01-06T11:12:07;18.80;;;10.20;;
35576;SDS011;21680;52.400;16.920;2023-01-06T11:14:37;21.60;;;11.70;;
35576;SDS011;21680;52.400;16.920;2023-01-06T11:17:04;18.00;;;10.60;;
35576;SDS011;21680;52.400;16.920;2023-01-06T11:22:02;21.60;;;10.90;;
35576;SDS011;21680;52.400;16.920;2023-01-06T11:24:30;19.70;;;10.70;;
35576;SDS011;21680;52.400;16.920;2023-01-06T11:26:57;30.30;;;10.90;;
35576;SDS011;21680;52.400;16.920;2023-01-06T11:29:42;24.50;;;11.30;;
35576;SDS011;21680;52.400;16.920;2023-01-06T11:34:39;22.70;;;12.20;;
35576;SDS011;21680;52.400;16.920;2023-01-06T11:37:34;50.40;;;24.30;;
35576;SDS011;21680;52.400;16.920;2023-01-06T11:40:15;54.40;;;26.30;;
35576;SDS011;21680;52.400;16.920;2023-01-06T11:42:55;33.80;;;17.90;;
35576;SDS011;21680;52.400;16.920;2023-01-06T11:48:06;26.80;;;13.90;;
35576;SDS011;21680;52.400;16.920;2023-01-06T11:50:39;25.80;;;12.60;;
35576;SDS011;21680;52.400;16.920;2023-01-06T11:53:14;32.40;;;14.70;;
35576;SDS011;21680;52.400;16.920;2023-01-06T11:55:40;28.80;;;13.70;;
35576;SDS011;21680;52.400;16.920;2023-01-06T11:58:10;26.00;;;13.60;;
35576;SDS011;21680;52.400;16.920;2023-01-06T12:00:55;32.70;;;14.40;;
35576;SDS011;21680;52.400;16.920;2023-01-06T12:03:32;33.10;;;16.60;;
35576;SDS011;21680;52.400;16.920;2023-01-06T12:11:49;28.40;;;14.60;;
35576;SDS011;21680;52.400;16.920;2023-01-06T12:14:29;27.50;;;13.80;;
35576;SDS011;21680;52.400;16.920;2023-01-06T12:20:02;18.70;;;10.50;;
35576;SDS011;21680;52.400;16.920;2023-01-06T12:22:37;19.80;;;11.10;;
35576;SDS011;21680;52.400;16.920;2023-01-06T12:25:25;14.60;;;8.10;;
35576;SDS011;21680;52.400;16.920;2023-01-06T12:30:37;20.70;;;9.10;;
35576;SDS011;21680;52.400;16.920;2023-01-06T12:33:24;15.10;;;8.30;;
35576;SDS011;21680;52.400;16.920;2023-01-06T12:36:09;18.70;;;10.20;;
35576;SDS011;21680;52.400;16.920;2023-01-06T12:38:57;20.30;;;10.40;;
35576;SDS011;21680;52.400;16.920;2023-01-06T12:46:58;56.30;;;28.30;;
35576;SDS011;21680;52.400;16.920;2023-01-06T12:52:16;48.30;;;22.90;;
35576;SDS011;21680;52.400;16.920;2023-01-06T12:54:49;42.60;;;20.20;;
35576;SDS011;21680;52.400;16.920;2023-01-06T13:05:53;40.70;;;19.90;;
35576;SDS011;21680;52.400;16.920;2023-01-06T13:13:49;34.30;;;16.50;;
35576;SDS011;21680;52.400;16.920;2023-01-06T13:22:05;27.30;;;14.00;;
35576;SDS011;21680;52.400;16.920;2023-01-06T13:24:36;38.50;;;21.40;;
35576;SDS011;21680;52.400;16.920;2023-01-06T13:30:26;42.30;;;19.10;;
35576;SDS011;21680;52.400;16.920;2023-01-06T13:41:20;52.00;;;21.70;;
35576;SDS011;21680;52.400;16.920;2023-01-06T13:43:49;46.60;;;19.90;;
35576;SDS011;21680;52.400;16.920;2023-01-06T13:46:17;45.40;;;19.30;;
35576;SDS011;21680;52.400;16.920;2023-01-06T13:48:47;44.10;;;20.70;;
35576;SDS011;21680;52.400;16.920;2023-01-06T13:51:17;47.10;;;18.90;;
35576;SDS011;21680;52.400;16.920;2023-01-06T13:53:45;44.80;;;20.50;;
35576;SDS011;21680;52.400;16.920;2023-01-06T13:58:38;40.30;;;19.10;;
35576;SDS011;21680;52.400;16.920;2023-01-06T14:03:46;43.00;;;19.00;;
35576;SDS011;21680;52.400;16.920;2023-01-06T14:09:05;39.20;;;18.60;;
35576;SDS011;21680;52.400;16.920;2023-01-06T14:11:41;41.60;;;20.50;;
35576;SDS011;21680;52.400;16.920;2023-01-06T14:14:20;40.30;;;19.70;;
35576;SDS011;21680;52.400;16.920;2023-01-06T14:16:54;62.60;;;30.10;;
35576;SDS011;21680;52.400;16.920;2023-01-06T14:19:22;41.10;;;20.90;;
35576;SDS011;21680;52.400;16.920;2023-01-06T14:21:52;47.40;;;23.60;;
35576;SDS011;21680;52.400;16.920;2023-01-06T14:24:32;44.90;;;19.80;;
35576;SDS011;21680;52.400;16.920;2023-01-06T14:27:05;38.80;;;19.60;;
35576;SDS011;21680;52.400;16.920;2023-01-06T14:32:03;46.20;;;23.20;;
35576;SDS011;21680;52.400;16.920;2023-01-06T14:34:32;63.00;;;27.10;;
35576;SDS011;21680;52.400;16.920;2023-01-06T14:37:00;60.80;;;25.30;;
35576;SDS011;21680;52.400;16.920;2023-01-06T14:39:27;58.90;;;28.00;;
35576;SDS011;21680;52.400;16.920;2023-01-06T14:44:34;40.60;;;21.00;;
35576;SDS011;21680;52.400;16.920;2023-01-06T14:47:10;57.20;;;27.50;;
35576;SDS011;21680;52.400;16.920;2023-01-06T14:49:45;63.50;;;30.20;;
35576;SDS011;21680;52.400;16.920;2023-01-06T14:52:19;57.40;;;29.10;;
35576;SDS011;21680;52.400;16.920;2023-01-06T14:54:53;47.10;;;24.80;;
35576;SDS011;21680;52.400;16.920;2023-01-06T15:05:31;34.90;;;17.70;;
35576;SDS011;21680;52.400;16.920;2023-01-06T15:07:59;32.10;;;16.00;;
35576;SDS011;21680;52.400;16.920;2023-01-06T15:10:27;35.90;;;18.00;;
35576;SDS011;21680;52.400;16.920;2023-01-06T15:12:55;29.60;;;16.20;;
35576;SDS011;21680;52.400;16.920;2023-01-06T15:15:21;36.80;;;18.10;;
35576;SDS011;21680;52.400;16.920;2023-01-06T15:17:47;33.10;;;16.80;;
35576;SDS011;21680;52.400;16.920;2023-01-06T15:20:14;37.30;;;19.70;;
35576;SDS011;21680;52.400;16.920;2023-01-06T15:22:39;33.60;;;18.00;;
35576;SDS011;21680;52.400;16.920;2023-01-06T15:25:14;28.70;;;15.30;;
35576;SDS011;21680;52.400;16.920;2023-01-06T15:27:44;38.00;;;18.70;;
35576;SDS011;21680;52.400;16.920;2023-01-06T15:30:14;37.70;;;19.90;;
35576;SDS011;21680;52.400;16.920;2023-01-06T15:32:41;52.30;;;21.90;;
35576;SDS011;21680;52.400;16.920;2023-01-06T15:35:08;33.10;;;19.30;;
35576;SDS011;21680;52.400;16.920;2023-01-06T15:37:38;31.30;;;17.50;;
35576;SDS011;21680;52.400;16.920;2023-01-06T15:40:06;33.70;;;17.60;;
35576;SDS011;21680;52.400;16.920;2023-01-06T15:42:34;39.10;;;18.40;;
35576;SDS011;21680;52.400;16.920;2023-01-06T15:45:01;39.30;;;17.30;;
35576;SDS011;21680;52.400;16.920;2023-01-06T15:47:29;36.50;;;18.30;;
35576;SDS011;21680;52.400;16.920;2023-01-06T15:50:07;27.00;;;15.10;;
35576;SDS011;21680;52.400;16.920;2023-01-06T15:52:47;32.60;;;17.10;;
35576;SDS011;21680;52.400;16.920;2023-01-06T15:55:20;36.10;;;18.70;;
35576;SDS011;21680;52.400;16.920;2023-01-06T16:00:23;36.60;;;18.40;;
35576;SDS011;21680;52.400;16.920;2023-01-06T16:02:51;39.30;;;20.90;;
35576;SDS011;21680;52.400;16.920;2023-01-06T16:08:24;39.20;;;20.10;;
35576;SDS011;21680;52.400;16.920;2023-01-06T16:11:07;39.00;;;20.60;;
35576;SDS011;21680;52.400;16.920;2023-01-06T16:13:39;40.00;;;19.60;;
35576;SDS011;21680;52.400;16.920;2023-01-06T16:18:39;48.50;;;23.20;;
35576;SDS011;21680;52.400;16.920;2023-01-06T16:21:20;47.20;;;23.10;;
35576;SDS011;21680;52.400;16.920;2023-01-06T16:23:49;50.40;;;25.90;;
35576;SDS011;21680;52.400;16.920;2023-01-06T16:26:18;43.40;;;23.80;;
35576;SDS011;21680;52.400;16.920;2023-01-06T16:28:47;45.40;;;23.00;;
35576;SDS011;21680;52.400;16.920;2023-01-06T16:31:28;51.10;;;26.10;;
35576;SDS011;21680;52.400;16.920;2023-01-06T16:33:54;47.70;;;23.10;;
35576;SDS011;21680;52.400;16.920;2023-01-06T16:36:19;43.60;;;22.20;;
35576;SDS011;21680;52.400;16.920;2023-01-06T16:38:45;36.10;;;20.30;;
35576;SDS011;21680;52.400;16.920;2023-01-06T16:41:17;36.50;;;19.60;;
35576;SDS011;21680;52.400;16.920;2023-01-06T16:43:45;41.20;;;19.70;;
35576;SDS011;21680;52.400;16.920;2023-01-06T16:46:18;34.60;;;18.00;;
35576;SDS011;21680;52.400;16.920;2023-01-06T16:48:46;37.70;;;18.30;;
35576;SDS011;21680;52.400;16.920;2023-01-06T16:51:13;36.90;;;19.60;;
35576;SDS011;21680;52.400;16.920;2023-01-06T16:53:41;38.20;;;19.50;;
35576;SDS011;21680;52.400;16.920;2023-01-06T16:56:13;41.00;;;21.30;;
35576;SDS011;21680;52.400;16.920;2023-01-06T16:58:43;40.60;;;20.40;;
35576;SDS011;21680;52.400;16.920;2023-01-06T17:01:13;44.80;;;20.80;;
35576;SDS011;21680;52.400;16.920;2023-01-06T17:06:25;48.20;;;21.80;;
35576;SDS011;21680;52.400;16.920;2023-01-06T17:08:53;41.40;;;20.70;;
35576;SDS011;21680;52.400;16.920;2023-01-06T17:11:22;41.80;;;20.30;;
35576;SDS011;21680;52.400;16.920;2023-01-06T17:13:52;35.20;;;19.00;;
35576;SDS011;21680;52.400;16.920;2023-01-06T17:16:20;37.80;;;20.40;;
35576;SDS011;21680;52.400;16.920;2023-01-06T17:18:52;44.20;;;23.20;;
35576;SDS011;21680;52.400;16.920;2023-01-06T17:21:36;44.00;;;21.20;;
35576;SDS011;21680;52.400;16.920;2023-01-06T17:24:10;38.90;;;19.80;;
35576;SDS011;21680;52.400;16.920;2023-01-06T17:26:36;39.10;;;21.20;;